EDT,Max TemperatureF,Mean TemperatureF,Min TemperatureF,Max Dew PointF,MeanDew PointF,Min DewpointF,Max Humidity, Mean Humidity, Min Humidity, Max Sea Level PressureIn, Mean Sea Level PressureIn, Min Sea Level PressureIn, Max VisibilityMiles, Mean VisibilityMiles, Min VisibilityMiles, Max Wind SpeedMPH, Mean Wind SpeedMPH, Max Gust SpeedMPH,PrecipitationIn, CloudCover, Events, WindDirDegrees
2012-10-1,79,71,64,75,67,63,100,92,78,29.93,29.90,29.87,10,8,2,13,6,,0.05,6,Rain,49
2012-10-2,79,76,73,76,74,71,94,90,81,30.04,29.92,29.87,10,7,1,15,8,32,0.44,6,Rain-Thunderstorm,182
2012-10-3,82,78,75,75,74,73,94,88,79,30.21,30.13,30.05,10,10,6,13,8,,0.01,4,Rain,216
2012-10-4,82,77,71,75,71,67,97,84,62,30.24,30.20,30.16,10,10,6,9,5,,0.00,3,,267
2012-10-5,82,74,64,66,62,58,93,74,45,30.17,30.12,30.06,10,10,7,7,4,,0.00,3,,348
2012-10-6,80,70,60,65,62,59,96,75,48,30.05,29.98,29.92,10,9,8,12,3,,0.01,0,,228
2012-10-7,79,69,57,70,66,55,94,84,74,30.10,30.01,29.95,10,8,2,13,3,20,0.14,4,Rain-Thunderstorm,273
2012-10-8,70,62,55,63,57,52,100,89,78,30.18,30.10,30.02,10,9,3,14,8,22,0.15,8,Rain-Thunderstorm,12
2012-10-9,64,58,53,58,55,53,100,93,75,30.10,30.07,30.03,10,6,1,14,7,21,0.00,8,,336
2012-10-10,70,62,55,55,53,50,100,83,53,30.11,30.06,29.99,10,10,8,8,4,16,0.00,5,,285
2012-10-11,69,60,52,52,49,46,93,69,45,30.28,30.23,30.12,10,10,10,12,5,21,0.00,0,,17
2012-10-12,72,59,46,54,49,45,93,69,42,30.30,30.22,30.16,10,10,9,7,2,,0.00,1,,343
2012-10-13,71,60,51,50,47,40,80,65,38,30.43,30.38,30.33,10,10,10,13,7,18,0.00,0,,28
2012-10-14,78,66,55,63,58,50,96,75,56,30.34,30.21,30.09,10,10,10,8,5,,0.00,0,,80
2012-10-15,75,67,59,68,63,57,93,83,67,30.06,29.88,29.76,10,9,6,13,3,21,0.01,4,,230
2012-10-16,69,60,48,57,47,44,93,67,43,29.96,29.92,29.81,10,10,10,14,6,21,0.00,1,,356
2012-10-17,66,57,48,53,50,47,93,78,58,30.04,29.99,29.95,10,10,10,6,2,,0.00,3,,41
2012-10-18,77,65,55,69,62,52,93,80,64,29.96,29.90,29.84,10,10,8,10,5,,0.00,4,Rain,129
2012-10-19,75,70,64,70,66,54,96,86,70,29.83,29.79,29.75,10,9,4,8,3,,0.05,3,,229
2012-10-20,73,63,53,52,48,43,86,60,35,29.93,29.85,29.82,10,10,10,13,5,18,0.00,0,,254
2012-10-21,70,61,51,49,46,43,80,66,44,30.16,30.08,29.96,10,10,10,9,6,,0.00,0,,347
2012-10-22,72,57,45,50,46,43,93,74,39,30.25,30.20,30.17,10,10,10,6,2,,0.00,0,,85
2012-10-23,73,60,48,54,50,46,93,74,42,30.23,30.19,30.15,10,10,8,8,3,,0.00,0,,265
2012-10-24,78,66,54,65,59,52,100,83,58,30.21,30.18,30.14,10,10,7,7,2,,0.01,1,,264
2012-10-25,78,68,57,65,61,56,96,79,58,30.17,30.14,30.12,10,10,9,8,3,,0.01,1,,72
2012-10-26,77,68,60,66,62,57,96,89,66,30.09,29.97,29.83,10,8,2,14,9,24,0.04,4,Rain,11
2012-10-27,70,66,62,64,62,60,94,88,78,29.81,29.60,29.49,10,7,4,23,15,37,1.28,7,Rain,20
2012-10-28,63,59,55,61,55,48,94,87,72,29.48,29.42,29.36,10,8,2,23,19,40,0.51,8,Rain,345
2012-10-29,55,52,48,51,45,36,93,79,63,29.44,29.42,29.37,10,10,5,17,14,32,0.00,8,Rain,292
2012-10-30,55,52,48,35,34,32,61,53,42,29.53,29.48,29.41,10,10,10,14,11,22,0.00,6,,253
2012-10-31,57,52,48,42,38,34,77,59,45,29.81,29.74,29.68,10,10,7,10,6,17,0.00,3,,252